sensor_id;sensor_type;location;lat;lon;timestamp;temperature;humidity
66582;SHT31;53438;48.898;2.308;2023-03-16T00:00:42;10.30;52.89
66582;SHT31;53438;48.898;2.308;2023-03-16T00:03:09;10.22;52.79
66582;SHT31;53438;48.898;2.308;2023-03-16T00:05:34;10.17;53.16
66582;SHT31;53438;48.898;2.308;2023-03-16T00:08:00;10.20;53.05
66582;SHT31;53438;48.898;2.308;2023-03-16T00:10:25;10.18;53.10
66582;SHT31;53438;48.898;2.308;2023-03-16T00:12:54;10.17;53.31
66582;SHT31;53438;48.898;2.308;2023-03-16T00:15:20;10.21;53.19
66582;SHT31;53438;48.898;2.308;2023-03-16T00:17:45;10.17;53.19
66582;SHT31;53438;48.898;2.308;2023-03-16T00:20:15;10.16;53.52
66582;SHT31;53438;48.898;2.308;2023-03-16T00:22:40;10.14;53.20
66582;SHT31;53438;48.898;2.308;2023-03-16T00:25:07;10.08;53.20
66582;SHT31;53438;48.898;2.308;2023-03-16T00:27:32;9.98;53.14
66582;SHT31;53438;48.898;2.308;2023-03-16T00:29:58;9.91;53.21
66582;SHT31;53438;48.898;2.308;2023-03-16T00:32:28;9.90;53.49
66582;SHT31;53438;48.898;2.308;2023-03-16T00:34:54;9.90;53.71
66582;SHT31;53438;48.898;2.308;2023-03-16T00:37:21;9.97;53.82
66582;SHT31;53438;48.898;2.308;2023-03-16T00:39:48;9.97;53.79
66582;SHT31;53438;48.898;2.308;2023-03-16T00:42:16;9.87;53.97
66582;SHT31;53438;48.898;2.308;2023-03-16T00:44:42;9.85;54.22
66582;SHT31;53438;48.898;2.308;2023-03-16T00:47:08;9.73;54.54
66582;SHT31;53438;48.898;2.308;2023-03-16T00:49:35;9.76;54.75
66582;SHT31;53438;48.898;2.308;2023-03-16T00:52:05;9.77;54.76
66582;SHT31;53438;48.898;2.308;2023-03-16T00:54:31;9.83;54.70
66582;SHT31;53438;48.898;2.308;2023-03-16T00:57:01;9.82;54.69
66582;SHT31;53438;48.898;2.308;2023-03-16T00:59:27;9.67;55.14
66582;SHT31;53438;48.898;2.308;2023-03-16T04:00:35;8.95;55.49
66582;SHT31;53438;48.898;2.308;2023-03-16T04:03:00;8.80;55.92
66582;SHT31;53438;48.898;2.308;2023-03-16T04:05:26;8.78;55.82
66582;SHT31;53438;48.898;2.308;2023-03-16T04:07:55;8.74;55.96
66582;SHT31;53438;48.898;2.308;2023-03-16T04:10:23;8.77;56.09
66582;SHT31;53438;48.898;2.308;2023-03-16T04:12:49;8.77;56.01
66582;SHT31;53438;48.898;2.308;2023-03-16T04:15:14;8.84;55.86
66582;SHT31;53438;48.898;2.308;2023-03-16T04:17:39;8.74;56.10
66582;SHT31;53438;48.898;2.308;2023-03-16T04:20:05;8.83;55.76
66582;SHT31;53438;48.898;2.308;2023-03-16T04:22:37;8.83;55.73
66582;SHT31;53438;48.898;2.308;2023-03-16T04:25:02;8.94;55.52
66582;SHT31;53438;48.898;2.308;2023-03-16T04:27:29;8.85;55.58
66582;SHT31;53438;48.898;2.308;2023-03-16T04:30:07;8.81;55.83
66582;SHT31;53438;48.898;2.308;2023-03-16T04:32:33;8.77;55.88
66582;SHT31;53438;48.898;2.308;2023-03-16T04:34:58;8.74;55.87
66582;SHT31;53438;48.898;2.308;2023-03-16T04:37:24;8.74;56.01
66582;SHT31;53438;48.898;2.308;2023-03-16T04:39:49;8.76;55.93
66582;SHT31;53438;48.898;2.308;2023-03-16T04:42:15;8.77;55.65
66582;SHT31;53438;48.898;2.308;2023-03-16T04:44:40;8.73;55.60
66582;SHT31;53438;48.898;2.308;2023-03-16T04:47:08;8.77;55.51
66582;SHT31;53438;48.898;2.308;2023-03-16T04:49:34;8.81;55.39
66582;SHT31;53438;48.898;2.308;2023-03-16T04:51:59;8.78;55.36
66582;SHT31;53438;48.898;2.308;2023-03-16T04:54:25;8.78;55.54
66582;SHT31;53438;48.898;2.308;2023-03-16T04:56:50;8.76;55.56
66582;SHT31;53438;48.898;2.308;2023-03-16T04:59:16;8.71;55.58
66582;SHT31;53438;48.898;2.308;2023-03-16T05:01:42;8.54;55.70
66582;SHT31;53438;48.898;2.308;2023-03-16T05:04:07;8.56;56.00
66582;SHT31;53438;48.898;2.308;2023-03-16T05:06:33;8.56;56.28
66582;SHT31;53438;48.898;2.308;2023-03-16T05:08:59;8.60;56.13
66582;SHT31;53438;48.898;2.308;2023-03-16T05:11:25;8.59;56.30
66582;SHT31;53438;48.898;2.308;2023-03-16T05:13:51;8.63;56.55
66582;SHT31;53438;48.898;2.308;2023-03-16T05:16:17;8.64;56.54
66582;SHT31;53438;48.898;2.308;2023-03-16T05:18:42;8.66;56.63
66582;SHT31;53438;48.898;2.308;2023-03-16T05:21:07;8.60;56.70
66582;SHT31;53438;48.898;2.308;2023-03-16T05:23:34;8.60;56.67
66582;SHT31;53438;48.898;2.308;2023-03-16T05:25:59;8.59;56.70
66582;SHT31;53438;48.898;2.308;2023-03-16T05:28:25;8.60;56.76
66582;SHT31;53438;48.898;2.308;2023-03-16T05:30:51;8.60;56.68
66582;SHT31;53438;48.898;2.308;2023-03-16T05:33:16;8.57;56.72
66582;SHT31;53438;48.898;2.308;2023-03-16T05:35:41;8.57;56.72
66582;SHT31;53438;48.898;2.308;2023-03-16T05:38:07;8.59;56.67
66582;SHT31;53438;48.898;2.308;2023-03-16T05:40:34;8.60;56.56
66582;SHT31;53438;48.898;2.308;2023-03-16T05:42:59;8.53;56.64
66582;SHT31;53438;48.898;2.308;2023-03-16T05:45:25;8.53;56.62
66582;SHT31;53438;48.898;2.308;2023-03-16T05:47:51;8.46;56.24
66582;SHT31;53438;48.898;2.308;2023-03-16T05:50:18;8.43;56.35
66582;SHT31;53438;48.898;2.308;2023-03-16T05:52:44;8.42;56.82
66582;SHT31;53438;48.898;2.308;2023-03-16T05:55:12;8.42;56.89
66582;SHT31;53438;48.898;2.308;2023-03-16T05:57:38;8.33;56.35
66582;SHT31;53438;48.898;2.308;2023-03-16T06:00:05;8.33;56.62
66582;SHT31;53438;48.898;2.308;2023-03-16T06:02:41;8.24;56.29
66582;SHT31;53438;48.898;2.308;2023-03-16T06:05:07;8.29;56.43
66582;SHT31;53438;48.898;2.308;2023-03-16T06:07:33;8.32;56.46
66582;SHT31;53438;48.898;2.308;2023-03-16T06:09:59;8.22;56.24
66582;SHT31;53438;48.898;2.308;2023-03-16T06:12:24;8.29;56.18
66582;SHT31;53438;48.898;2.308;2023-03-16T06:14:50;8.30;56.27
66582;SHT31;53438;48.898;2.308;2023-03-16T06:17:15;8.32;56.41
66582;SHT31;53438;48.898;2.308;2023-03-16T06:19:40;8.26;56.03
66582;SHT31;53438;48.898;2.308;2023-03-16T06:22:06;8.30;56.52
66582;SHT31;53438;48.898;2.308;2023-03-16T06:24:32;8.37;56.59
66582;SHT31;53438;48.898;2.308;2023-03-16T06:26:58;8.37;55.88
66582;SHT31;53438;48.898;2.308;2023-03-16T06:29:23;8.45;56.05
66582;SHT31;53438;48.898;2.308;2023-03-16T06:31:49;8.52;55.96
66582;SHT31;53438;48.898;2.308;2023-03-16T06:34:16;8.47;55.80
66582;SHT31;53438;48.898;2.308;2023-03-16T06:36:42;8.40;55.61
66582;SHT31;53438;48.898;2.308;2023-03-16T06:39:07;8.39;55.62
66582;SHT31;53438;48.898;2.308;2023-03-16T06:41:33;8.40;55.76
66582;SHT31;53438;48.898;2.308;2023-03-16T06:44:00;8.36;55.40
66582;SHT31;53438;48.898;2.308;2023-03-16T06:46:25;8.39;55.18
66582;SHT31;53438;48.898;2.308;2023-03-16T06:48:50;8.39;55.48
66582;SHT31;53438;48.898;2.308;2023-03-16T06:51:17;8.46;55.54
66582;SHT31;53438;48.898;2.308;2023-03-16T06:53:45;8.43;55.31
66582;SHT31;53438;48.898;2.308;2023-03-16T06:56:10;8.42;55.32
66582;SHT31;53438;48.898;2.308;2023-03-16T06:58:35;8.46;55.29
66582;SHT31;53438;48.898;2.308;2023-03-16T07:01:02;8.45;55.56
66582;SHT31;53438;48.898;2.308;2023-03-16T07:03:28;8.49;55.43
66582;SHT31;53438;48.898;2.308;2023-03-16T07:05:53;8.50;55.42
66582;SHT31;53438;48.898;2.308;2023-03-16T07:08:18;8.46;55.46
66582;SHT31;53438;48.898;2.308;2023-03-16T07:10:44;8.52;55.44
66582;SHT31;53438;48.898;2.308;2023-03-16T07:13:09;8.57;55.13
66582;SHT31;53438;48.898;2.308;2023-03-16T07:15:35;8.64;54.95
66582;SHT31;53438;48.898;2.308;2023-03-16T07:18:00;8.64;54.81
66582;SHT31;53438;48.898;2.308;2023-03-16T07:20:26;8.67;54.91
66582;SHT31;53438;48.898;2.308;2023-03-16T07:22:52;8.64;54.93
66582;SHT31;53438;48.898;2.308;2023-03-16T07:25:18;8.66;54.70
66582;SHT31;53438;48.898;2.308;2023-03-16T07:27:43;8.71;54.76
66582;SHT31;53438;48.898;2.308;2023-03-16T07:30:11;8.74;54.89
66582;SHT31;53438;48.898;2.308;2023-03-16T07:32:39;8.73;54.65
66582;SHT31;53438;48.898;2.308;2023-03-16T07:35:06;8.68;54.75
66582;SHT31;53438;48.898;2.308;2023-03-16T07:37:31;8.71;54.65
66582;SHT31;53438;48.898;2.308;2023-03-16T07:39:59;8.67;54.71
66582;SHT31;53438;48.898;2.308;2023-03-16T07:42:24;8.71;54.71
66582;SHT31;53438;48.898;2.308;2023-03-16T07:44:50;8.81;54.43
66582;SHT31;53438;48.898;2.308;2023-03-16T07:47:16;8.87;54.15
66582;SHT31;53438;48.898;2.308;2023-03-16T07:49:41;8.97;53.89
66582;SHT31;53438;48.898;2.308;2023-03-16T07:52:09;8.94;53.15
66582;SHT31;53438;48.898;2.308;2023-03-16T07:54:34;8.94;52.94
66582;SHT31;53438;48.898;2.308;2023-03-16T07:56:59;8.94;52.91
66582;SHT31;53438;48.898;2.308;2023-03-16T07:59:25;8.89;53.08
66582;SHT31;53438;48.898;2.308;2023-03-16T08:01:51;9.01;53.10
66582;SHT31;53438;48.898;2.308;2023-03-16T08:04:16;9.07;53.15
66582;SHT31;53438;48.898;2.308;2023-03-16T08:06:42;9.15;52.82
66582;SHT31;53438;48.898;2.308;2023-03-16T08:09:07;9.22;52.63
66582;SHT31;53438;48.898;2.308;2023-03-16T08:11:33;9.32;52.52
66582;SHT31;53438;48.898;2.308;2023-03-16T08:13:58;9.38;52.32
66582;SHT31;53438;48.898;2.308;2023-03-16T08:16:24;9.36;52.27
66582;SHT31;53438;48.898;2.308;2023-03-16T08:18:50;9.38;52.38
66582;SHT31;53438;48.898;2.308;2023-03-16T08:21:17;9.45;52.24
66582;SHT31;53438;48.898;2.308;2023-03-16T08:23:43;9.50;52.14
66582;SHT31;53438;48.898;2.308;2023-03-16T08:26:14;9.55;51.96
66582;SHT31;53438;48.898;2.308;2023-03-16T08:28:41;9.47;51.74
66582;SHT31;53438;48.898;2.308;2023-03-16T08:31:07;9.57;51.84
66582;SHT31;53438;48.898;2.308;2023-03-16T08:33:33;9.67;51.49
66582;SHT31;53438;48.898;2.308;2023-03-16T08:36:00;9.65;51.44
66582;SHT31;53438;48.898;2.308;2023-03-16T08:38:26;9.75;51.39
66582;SHT31;53438;48.898;2.308;2023-03-16T08:40:51;9.83;51.19
66582;SHT31;53438;48.898;2.308;2023-03-16T08:43:17;9.96;51.12
66582;SHT31;53438;48.898;2.308;2023-03-16T08:45:46;10.01;51.03
66582;SHT31;53438;48.898;2.308;2023-03-16T08:48:12;10.10;51.02
66582;SHT31;53438;48.898;2.308;2023-03-16T08:50:42;10.00;51.00
66582;SHT31;53438;48.898;2.308;2023-03-16T08:53:09;9.83;51.06
66582;SHT31;53438;48.898;2.308;2023-03-16T08:55:35;9.80;51.25
66582;SHT31;53438;48.898;2.308;2023-03-16T08:58:01;9.97;51.22
66582;SHT31;53438;48.898;2.308;2023-03-16T09:00:26;10.17;50.78
66582;SHT31;53438;48.898;2.308;2023-03-16T09:02:52;10.34;50.64
66582;SHT31;53438;48.898;2.308;2023-03-16T09:05:19;10.44;50.45
66582;SHT31;53438;48.898;2.308;2023-03-16T09:07:45;10.51;50.22
66582;SHT31;53438;48.898;2.308;2023-03-16T09:10:11;10.56;50.01
66582;SHT31;53438;48.898;2.308;2023-03-16T09:12:43;10.71;49.77
66582;SHT31;53438;48.898;2.308;2023-03-16T09:15:10;10.79;49.45
66582;SHT31;53438;48.898;2.308;2023-03-16T09:17:37;10.93;49.63
66582;SHT31;53438;48.898;2.308;2023-03-16T09:20:04;10.93;49.57
66582;SHT31;53438;48.898;2.308;2023-03-16T09:22:29;10.89;49.48
66582;SHT31;53438;48.898;2.308;2023-03-16T09:24:55;10.89;50.01
66582;SHT31;53438;48.898;2.308;2023-03-16T09:27:20;10.80;49.60
66582;SHT31;53438;48.898;2.308;2023-03-16T09:29:47;10.72;50.16
66582;SHT31;53438;48.898;2.308;2023-03-16T09:32:13;10.88;49.87
66582;SHT31;53438;48.898;2.308;2023-03-16T09:34:38;10.99;49.74
66582;SHT31;53438;48.898;2.308;2023-03-16T09:37:04;11.12;49.68
66582;SHT31;53438;48.898;2.308;2023-03-16T09:39:30;11.10;49.63
66582;SHT31;53438;48.898;2.308;2023-03-16T09:42:23;11.17;49.61
66582;SHT31;53438;48.898;2.308;2023-03-16T09:47:53;11.16;49.74
66582;SHT31;53438;48.898;2.308;2023-03-16T09:50:31;11.26;49.51
66582;SHT31;53438;48.898;2.308;2023-03-16T09:55:41;11.37;49.57
66582;SHT31;53438;48.898;2.308;2023-03-16T09:58:14;11.40;49.60
66582;SHT31;53438;48.898;2.308;2023-03-16T10:06:10;11.43;49.61
66582;SHT31;53438;48.898;2.308;2023-03-16T10:08:39;11.53;49.62
66582;SHT31;53438;48.898;2.308;2023-03-16T10:16:06;11.75;49.28
66582;SHT31;53438;48.898;2.308;2023-03-16T10:18:57;11.84;49.04
66582;SHT31;53438;48.898;2.308;2023-03-16T10:21:24;11.88;49.30
66582;SHT31;53438;48.898;2.308;2023-03-16T10:23:51;11.98;48.91
66582;SHT31;53438;48.898;2.308;2023-03-16T10:26:34;12.05;48.72
66582;SHT31;53438;48.898;2.308;2023-03-16T10:29:01;12.11;48.57
66582;SHT31;53438;48.898;2.308;2023-03-16T10:31:26;12.18;48.64
66582;SHT31;53438;48.898;2.308;2023-03-16T10:33:57;12.33;48.04
66582;SHT31;53438;48.898;2.308;2023-03-16T10:36:34;12.33;48.22
66582;SHT31;53438;48.898;2.308;2023-03-16T10:39:02;12.44;47.64
66582;SHT31;53438;48.898;2.308;2023-03-16T10:41:31;12.42;47.41
66582;SHT31;53438;48.898;2.308;2023-03-16T10:43:59;12.49;47.36
66582;SHT31;53438;48.898;2.308;2023-03-16T10:49:04;12.49;47.66
66582;SHT31;53438;48.898;2.308;2023-03-16T10:51:32;12.54;47.27
66582;SHT31;53438;48.898;2.308;2023-03-16T10:54:26;12.63;47.24
66582;SHT31;53438;48.898;2.308;2023-03-16T10:56:52;12.64;47.02
66582;SHT31;53438;48.898;2.308;2023-03-16T10:59:35;12.73;47.07
66582;SHT31;53438;48.898;2.308;2023-03-16T11:02:15;12.70;46.93
66582;SHT31;53438;48.898;2.308;2023-03-16T11:04:41;12.79;47.45
66582;SHT31;53438;48.898;2.308;2023-03-16T11:07:07;12.81;47.14
66582;SHT31;53438;48.898;2.308;2023-03-16T11:09:39;12.80;47.05
66582;SHT31;53438;48.898;2.308;2023-03-16T11:12:18;12.83;46.92
66582;SHT31;53438;48.898;2.308;2023-03-16T11:14:46;12.91;46.99
66582;SHT31;53438;48.898;2.308;2023-03-16T11:17:16;12.97;47.30
66582;SHT31;53438;48.898;2.308;2023-03-16T11:22:15;13.16;46.46
66582;SHT31;53438;48.898;2.308;2023-03-16T11:27:36;13.28;46.25
66582;SHT31;53438;48.898;2.308;2023-03-16T11:32:37;13.35;45.87
66582;SHT31;53438;48.898;2.308;2023-03-16T11:35:18;13.39;45.95
66582;SHT31;53438;48.898;2.308;2023-03-16T11:38:15;13.52;45.60
66582;SHT31;53438;48.898;2.308;2023-03-16T11:41:12;13.58;45.54
66582;SHT31;53438;48.898;2.308;2023-03-16T11:43:48;13.63;45.95
66582;SHT31;53438;48.898;2.308;2023-03-16T11:46:30;13.63;45.63
66582;SHT31;53438;48.898;2.308;2023-03-16T11:51:40;13.84;44.56
66582;SHT31;53438;48.898;2.308;2023-03-16T11:54:34;13.84;44.94
66582;SHT31;53438;48.898;2.308;2023-03-16T11:57:23;13.86;44.88
66582;SHT31;53438;48.898;2.308;2023-03-16T12:00:07;13.97;44.53
66582;SHT31;53438;48.898;2.308;2023-03-16T12:08:24;14.09;43.96
66582;SHT31;53438;48.898;2.308;2023-03-16T12:11:13;14.06;44.87
66582;SHT31;53438;48.898;2.308;2023-03-16T12:14:07;13.93;45.16
66582;SHT31;53438;48.898;2.308;2023-03-16T12:16:54;14.01;44.20
66582;SHT31;53438;48.898;2.308;2023-03-16T12:19:31;14.03;44.58
66582;SHT31;53438;48.898;2.308;2023-03-16T12:24:44;14.04;44.70
66582;SHT31;53438;48.898;2.308;2023-03-16T12:27:15;14.13;43.91
66582;SHT31;53438;48.898;2.308;2023-03-16T12:29:52;14.42;42.35
66582;SHT31;53438;48.898;2.308;2023-03-16T12:37:42;14.58;43.70
66582;SHT31;53438;48.898;2.308;2023-03-16T12:48:31;14.85;42.40
66582;SHT31;53438;48.898;2.308;2023-03-16T12:51:02;14.99;42.31
66582;SHT31;53438;48.898;2.308;2023-03-16T12:53:39;15.06;42.23
66582;SHT31;53438;48.898;2.308;2023-03-16T12:56:07;15.03;42.12
66582;SHT31;53438;48.898;2.308;2023-03-16T12:58:35;14.96;42.62
66582;SHT31;53438;48.898;2.308;2023-03-16T13:01:01;14.93;42.43
66582;SHT31;53438;48.898;2.308;2023-03-16T13:03:27;15.12;41.56
66582;SHT31;53438;48.898;2.308;2023-03-16T13:05:58;15.16;40.89
66582;SHT31;53438;48.898;2.308;2023-03-16T13:08:25;15.06;41.50
66582;SHT31;53438;48.898;2.308;2023-03-16T13:11:18;15.16;41.42
66582;SHT31;53438;48.898;2.308;2023-03-16T13:16:25;15.26;40.21
66582;SHT31;53438;48.898;2.308;2023-03-16T13:18:51;15.24;40.27
66582;SHT31;53438;48.898;2.308;2023-03-16T13:21:38;15.54;39.58
66582;SHT31;53438;48.898;2.308;2023-03-16T13:26:46;15.65;39.41
66582;SHT31;53438;48.898;2.308;2023-03-16T13:29:25;15.70;39.14
66582;SHT31;53438;48.898;2.308;2023-03-16T13:31:53;15.67;38.33
66582;SHT31;53438;48.898;2.308;2023-03-16T13:34:31;15.58;38.93
66582;SHT31;53438;48.898;2.308;2023-03-16T13:36:59;15.47;38.92
66582;SHT31;53438;48.898;2.308;2023-03-16T13:39:28;15.41;37.88
66582;SHT31;53438;48.898;2.308;2023-03-16T13:41:59;15.50;37.88
66582;SHT31;53438;48.898;2.308;2023-03-16T13:44:25;15.50;37.28
66582;SHT31;53438;48.898;2.308;2023-03-16T13:46:51;15.58;37.24
66582;SHT31;53438;48.898;2.308;2023-03-16T13:49:17;15.61;37.72
66582;SHT31;53438;48.898;2.308;2023-03-16T13:51:43;15.55;38.67
66582;SHT31;53438;48.898;2.308;2023-03-16T13:54:27;15.44;38.43
66582;SHT31;53438;48.898;2.308;2023-03-16T13:56:59;15.55;37.88
66582;SHT31;53438;48.898;2.308;2023-03-16T13:59:25;15.72;37.29
66582;SHT31;53438;48.898;2.308;2023-03-16T14:01:55;15.95;36.27
66582;SHT31;53438;48.898;2.308;2023-03-16T14:04:25;15.99;36.21
66582;SHT31;53438;48.898;2.308;2023-03-16T14:07:01;16.04;36.51
66582;SHT31;53438;48.898;2.308;2023-03-16T14:09:30;15.95;36.54
66582;SHT31;53438;48.898;2.308;2023-03-16T14:11:57;15.85;37.25
66582;SHT31;53438;48.898;2.308;2023-03-16T14:14:28;15.94;37.47
66582;SHT31;53438;48.898;2.308;2023-03-16T14:17:00;15.74;37.55
66582;SHT31;53438;48.898;2.308;2023-03-16T14:19:27;15.84;37.68
66582;SHT31;53438;48.898;2.308;2023-03-16T14:22:02;15.82;37.65
66582;SHT31;53438;48.898;2.308;2023-03-16T14:24:36;15.88;37.40
66582;SHT31;53438;48.898;2.308;2023-03-16T14:30:17;15.91;37.65
66582;SHT31;53438;48.898;2.308;2023-03-16T14:33:26;16.06;37.83
66582;SHT31;53438;48.898;2.308;2023-03-16T14:35:55;16.20;38.05
66582;SHT31;53438;48.898;2.308;2023-03-16T14:38:30;16.33;37.97
66582;SHT31;53438;48.898;2.308;2023-03-16T14:41:01;16.25;38.31
66582;SHT31;53438;48.898;2.308;2023-03-16T14:43:31;16.25;38.46
66582;SHT31;53438;48.898;2.308;2023-03-16T14:45:59;16.42;38.44
66582;SHT31;53438;48.898;2.308;2023-03-16T14:48:25;16.52;38.78
66582;SHT31;53438;48.898;2.308;2023-03-16T14:50:55;16.49;39.04
66582;SHT31;53438;48.898;2.308;2023-03-16T14:53:22;16.59;39.10
66582;SHT31;53438;48.898;2.308;2023-03-16T14:55:52;16.61;39.37
66582;SHT31;53438;48.898;2.308;2023-03-16T14:58:18;16.63;39.48
66582;SHT31;53438;48.898;2.308;2023-03-16T15:00:43;16.59;39.59
66582;SHT31;53438;48.898;2.308;2023-03-16T15:03:14;16.56;40.07
66582;SHT31;53438;48.898;2.308;2023-03-16T15:05:42;16.57;40.12
66582;SHT31;53438;48.898;2.308;2023-03-16T15:08:30;16.63;40.36
66582;SHT31;53438;48.898;2.308;2023-03-16T15:11:00;16.66;40.39
66582;SHT31;53438;48.898;2.308;2023-03-16T15:13:26;16.63;40.68
66582;SHT31;53438;48.898;2.308;2023-03-16T15:16:18;16.53;40.98
66582;SHT31;53438;48.898;2.308;2023-03-16T15:18:44;16.46;41.41
66582;SHT31;53438;48.898;2.308;2023-03-16T15:21:11;16.53;41.69
66582;SHT31;53438;48.898;2.308;2023-03-16T15:23:38;16.46;41.81
66582;SHT31;53438;48.898;2.308;2023-03-16T15:26:04;16.39;41.87
66582;SHT31;53438;48.898;2.308;2023-03-16T15:28:33;16.38;41.96
66582;SHT31;53438;48.898;2.308;2023-03-16T15:31:01;16.39;42.39
66582;SHT31;53438;48.898;2.308;2023-03-16T15:33:27;16.28;42.66
66582;SHT31;53438;48.898;2.308;2023-03-16T15:35:55;16.20;43.03
66582;SHT31;53438;48.898;2.308;2023-03-16T15:38:30;16.30;42.90
66582;SHT31;53438;48.898;2.308;2023-03-16T15:40:57;16.32;43.01
66582;SHT31;53438;48.898;2.308;2023-03-16T15:43:25;16.29;43.48
66582;SHT31;53438;48.898;2.308;2023-03-16T15:45:51;16.26;43.48
66582;SHT31;53438;48.898;2.308;2023-03-16T15:48:18;16.33;43.65
66582;SHT31;53438;48.898;2.308;2023-03-16T15:50:53;16.22;44.16
66582;SHT31;53438;48.898;2.308;2023-03-16T15:55:51;16.09;44.04
66582;SHT31;53438;48.898;2.308;2023-03-16T15:58:22;15.97;44.55
66582;SHT31;53438;48.898;2.308;2023-03-16T16:00:48;15.91;44.87
66582;SHT31;53438;48.898;2.308;2023-03-16T16:03:14;15.90;44.84
66582;SHT31;53438;48.898;2.308;2023-03-16T16:05:39;15.87;45.01
66582;SHT31;53438;48.898;2.308;2023-03-16T16:08:05;15.82;44.84
66582;SHT31;53438;48.898;2.308;2023-03-16T16:10:32;15.99;44.19
66582;SHT31;53438;48.898;2.308;2023-03-16T16:12:59;16.15;43.66
66582;SHT31;53438;48.898;2.308;2023-03-16T16:15:31;16.12;43.73
66582;SHT31;53438;48.898;2.308;2023-03-16T16:17:59;16.04;44.15
66582;SHT31;53438;48.898;2.308;2023-03-16T16:20:26;16.08;43.87
66582;SHT31;53438;48.898;2.308;2023-03-16T16:22:53;15.95;44.37
66582;SHT31;53438;48.898;2.308;2023-03-16T16:25:21;15.94;44.46
66582;SHT31;53438;48.898;2.308;2023-03-16T16:27:48;15.94;44.65
66582;SHT31;53438;48.898;2.308;2023-03-16T16:30:23;15.92;44.33
66582;SHT31;53438;48.898;2.308;2023-03-16T16:32:49;15.95;44.28
66582;SHT31;53438;48.898;2.308;2023-03-16T16:35:20;15.92;44.53
66582;SHT31;53438;48.898;2.308;2023-03-16T16:37:47;15.94;43.96
66582;SHT31;53438;48.898;2.308;2023-03-16T16:40:21;15.94;44.38
66582;SHT31;53438;48.898;2.308;2023-03-16T16:42:49;15.94;44.39
66582;SHT31;53438;48.898;2.308;2023-03-16T16:45:20;15.81;44.34
66582;SHT31;53438;48.898;2.308;2023-03-16T16:47:51;15.74;44.64
66582;SHT31;53438;48.898;2.308;2023-03-16T16:50:21;15.71;44.12
66582;SHT31;53438;48.898;2.308;2023-03-16T16:52:48;15.71;44.22
66582;SHT31;53438;48.898;2.308;2023-03-16T16:55:14;15.74;44.06
66582;SHT31;53438;48.898;2.308;2023-03-16T16:57:40;15.70;44.45
66582;SHT31;53438;48.898;2.308;2023-03-16T17:00:17;15.75;44.14
66582;SHT31;53438;48.898;2.308;2023-03-16T17:02:49;15.74;44.48
66582;SHT31;53438;48.898;2.308;2023-03-16T17:05:22;15.64;44.58
66582;SHT31;53438;48.898;2.308;2023-03-16T17:07:48;15.64;44.47
66582;SHT31;53438;48.898;2.308;2023-03-16T17:10:17;15.68;44.59
66582;SHT31;53438;48.898;2.308;2023-03-16T17:12:43;15.62;44.64
66582;SHT31;53438;48.898;2.308;2023-03-16T17:15:28;15.67;44.66
66582;SHT31;53438;48.898;2.308;2023-03-16T17:18:21;15.75;44.21
66582;SHT31;53438;48.898;2.308;2023-03-16T17:20:47;15.71;44.50
66582;SHT31;53438;48.898;2.308;2023-03-16T17:23:32;15.78;44.18
66582;SHT31;53438;48.898;2.308;2023-03-16T17:26:14;15.80;44.40
66582;SHT31;53438;48.898;2.308;2023-03-16T17:28:53;15.77;44.63
66582;SHT31;53438;48.898;2.308;2023-03-16T17:31:22;15.67;44.38
66582;SHT31;53438;48.898;2.308;2023-03-16T17:33:50;15.68;44.36
66582;SHT31;53438;48.898;2.308;2023-03-16T17:36:17;15.60;44.60
66582;SHT31;53438;48.898;2.308;2023-03-16T17:38:43;15.62;44.45
66582;SHT31;53438;48.898;2.308;2023-03-16T17:41:24;15.61;44.60
66582;SHT31;53438;48.898;2.308;2023-03-16T17:43:51;15.54;44.23
66582;SHT31;53438;48.898;2.308;2023-03-16T17:46:23;15.58;44.38
66582;SHT31;53438;48.898;2.308;2023-03-16T17:48:49;15.58;44.30
66582;SHT31;53438;48.898;2.308;2023-03-16T17:51:18;15.60;44.26
66582;SHT31;53438;48.898;2.308;2023-03-16T17:53:44;15.61;44.08
66582;SHT31;53438;48.898;2.308;2023-03-16T17:56:19;15.54;44.35
66582;SHT31;53438;48.898;2.308;2023-03-16T17:58:47;15.57;44.15
66582;SHT31;53438;48.898;2.308;2023-03-16T18:01:14;15.54;44.46
66582;SHT31;53438;48.898;2.308;2023-03-16T18:03:40;15.49;44.63
66582;SHT31;53438;48.898;2.308;2023-03-16T18:06:15;15.54;44.24
66582;SHT31;53438;48.898;2.308;2023-03-16T18:08:41;15.53;44.45
66582;SHT31;53438;48.898;2.308;2023-03-16T18:11:13;15.51;44.53
66582;SHT31;53438;48.898;2.308;2023-03-16T18:13:39;15.50;44.88
66582;SHT31;53438;48.898;2.308;2023-03-16T18:16:06;15.57;44.70
66582;SHT31;53438;48.898;2.308;2023-03-16T18:18:35;15.44;45.04
66582;SHT31;53438;48.898;2.308;2023-03-16T18:21:02;15.50;45.17
66582;SHT31;53438;48.898;2.308;2023-03-16T18:23:30;15.41;45.57
66582;SHT31;53438;48.898;2.308;2023-03-16T18:25:56;15.43;45.68
66582;SHT31;53438;48.898;2.308;2023-03-16T18:28:27;15.33;46.20
66582;SHT31;53438;48.898;2.308;2023-03-16T18:30:54;15.27;46.47
66582;SHT31;53438;48.898;2.308;2023-03-16T18:33:26;15.27;46.64
66582;SHT31;53438;48.898;2.308;2023-03-16T18:35:54;15.30;46.73
66582;SHT31;53438;48.898;2.308;2023-03-16T18:38:28;15.26;47.08
66582;SHT31;53438;48.898;2.308;2023-03-16T18:40:59;15.20;47.42
66582;SHT31;53438;48.898;2.308;2023-03-16T18:43:26;15.23;47.40
66582;SHT31;53438;48.898;2.308;2023-03-16T18:45:51;15.20;47.75
66582;SHT31;53438;48.898;2.308;2023-03-16T18:48:29;15.20;47.82
66582;SHT31;53438;48.898;2.308;2023-03-16T18:51:01;15.16;48.25
66582;SHT31;53438;48.898;2.308;2023-03-16T18:53:27;15.12;48.43
66582;SHT31;53438;48.898;2.308;2023-03-16T18:55:53;15.12;48.64
66582;SHT31;53438;48.898;2.308;2023-03-16T18:58:22;15.07;48.80
66582;SHT31;53438;48.898;2.308;2023-03-16T19:00:55;15.03;48.95
66582;SHT31;53438;48.898;2.308;2023-03-16T19:03:27;15.00;49.24
66582;SHT31;53438;48.898;2.308;2023-03-16T19:05:54;15.00;49.23
66582;SHT31;53438;48.898;2.308;2023-03-16T19:08:21;14.98;49.47
66582;SHT31;53438;48.898;2.308;2023-03-16T19:11:13;14.99;49.66
66582;SHT31;53438;48.898;2.308;2023-03-16T19:13:38;14.96;49.93
66582;SHT31;53438;48.898;2.308;2023-03-16T19:16:05;14.92;50.05
66582;SHT31;53438;48.898;2.308;2023-03-16T19:18:33;14.91;50.24
66582;SHT31;53438;48.898;2.308;2023-03-16T19:21:12;14.89;50.40
66582;SHT31;53438;48.898;2.308;2023-03-16T19:23:37;14.91;50.59
66582;SHT31;53438;48.898;2.308;2023-03-16T19:26:03;14.86;50.77
66582;SHT31;53438;48.898;2.308;2023-03-16T19:28:34;14.83;50.74
66582;SHT31;53438;48.898;2.308;2023-03-16T19:31:05;14.82;50.97
66582;SHT31;53438;48.898;2.308;2023-03-16T19:33:34;14.76;51.00
66582;SHT31;53438;48.898;2.308;2023-03-16T19:36:00;14.72;51.13
66582;SHT31;53438;48.898;2.308;2023-03-16T19:38:26;14.68;51.56
66582;SHT31;53438;48.898;2.308;2023-03-16T19:40:58;14.64;51.62
66582;SHT31;53438;48.898;2.308;2023-03-16T19:43:25;14.62;52.14
66582;SHT31;53438;48.898;2.308;2023-03-16T19:45:52;14.62;52.19
66582;SHT31;53438;48.898;2.308;2023-03-16T19:48:30;14.60;52.49